createdAt,value
2022-08-17T00:00:34.246Z,18.00
2022-08-17T00:03:14.992Z,18.00
2022-08-17T00:05:45.911Z,18.10
2022-08-17T00:08:14.719Z,18.10
2022-08-17T00:10:44.092Z,18.10
2022-08-17T00:13:18.399Z,18.10
2022-08-17T00:15:46.990Z,18.10
2022-08-17T00:18:53.771Z,18.00
2022-08-17T00:21:10.786Z,17.90
2022-08-17T00:23:44.429Z,17.80
2022-08-17T00:26:43.764Z,17.70
2022-08-17T00:29:07.621Z,17.70
2022-08-17T00:31:36.759Z,17.70
2022-08-17T00:34:08.777Z,17.70
2022-08-17T00:36:37.136Z,17.70
2022-08-17T00:39:07.343Z,17.70
2022-08-17T00:41:35.844Z,17.70
2022-08-17T00:44:06.929Z,17.70
2022-08-17T00:46:40.419Z,17.60
2022-08-17T00:49:11.077Z,17.60
2022-08-17T00:51:45.319Z,17.70
2022-08-17T00:54:15.715Z,17.70
2022-08-17T00:56:47.380Z,17.60
2022-08-17T00:59:18.584Z,17.60
2022-08-17T01:01:47.848Z,17.70
2022-08-17T01:04:19.382Z,17.60
2022-08-17T01:06:49.462Z,17.60
2022-08-17T01:09:18.961Z,17.60
2022-08-17T01:11:52.251Z,17.50
2022-08-17T01:14:21.405Z,17.50
2022-08-17T01:16:50.513Z,17.50
2022-08-17T01:19:24.609Z,17.50
2022-08-17T01:21:58.013Z,17.50
2022-08-17T01:24:29.575Z,17.50
2022-08-17T01:26:57.794Z,17.40
2022-08-17T01:29:26.865Z,17.40
2022-08-17T01:31:58.516Z,17.40
2022-08-17T01:34:35.100Z,17.40
2022-08-17T01:37:12.044Z,17.40
2022-08-17T01:39:45.730Z,17.30
2022-08-17T01:42:21.263Z,17.30
2022-08-17T01:44:51.520Z,17.30
2022-08-17T01:47:19.752Z,17.20
2022-08-17T01:49:47.806Z,17.20
2022-08-17T01:52:16.711Z,17.10
2022-08-17T01:54:49.046Z,17.10
2022-08-17T01:57:17.203Z,17.10
2022-08-17T01:59:45.334Z,17.00
2022-08-17T02:02:13.460Z,17.00
2022-08-17T02:05:00.167Z,17.00
2022-08-17T02:07:29.089Z,16.90
2022-08-17T02:09:58.631Z,17.00
2022-08-17T02:12:39.497Z,17.00
2022-08-17T02:15:12.388Z,17.00
2022-08-17T02:17:41.523Z,17.00
2022-08-17T02:20:11.188Z,17.00
2022-08-17T02:22:42.024Z,17.00
2022-08-17T02:25:16.190Z,17.00
2022-08-17T02:27:44.280Z,17.10
2022-08-17T02:31:01.977Z,17.00
2022-08-17T02:33:09.244Z,17.00
2022-08-17T02:35:37.900Z,17.00
2022-08-17T02:38:06.254Z,16.90
2022-08-17T02:40:36.779Z,16.90
2022-08-17T02:43:05.730Z,16.90
2022-08-17T02:45:33.854Z,16.80
2022-08-17T02:48:02.159Z,16.80
2022-08-17T02:50:32.742Z,16.80
2022-08-17T02:53:02.376Z,16.80
2022-08-17T02:55:37.330Z,16.80
2022-08-17T02:58:05.838Z,16.70
2022-08-17T03:00:36.275Z,16.60
2022-08-17T03:03:06.486Z,16.60
2022-08-17T03:05:36.544Z,16.50
2022-08-17T03:08:13.104Z,16.40
2022-08-17T03:10:46.275Z,16.40
2022-08-17T03:13:15.628Z,16.40
2022-08-17T03:15:46.143Z,16.40
2022-08-17T03:18:24.649Z,16.40
2022-08-17T03:20:56.612Z,16.40
2022-08-17T03:23:25.538Z,16.30
2022-08-17T03:25:56.212Z,16.30
2022-08-17T03:28:25.130Z,16.30
2022-08-17T03:30:53.458Z,16.30
2022-08-17T03:33:22.008Z,16.30
2022-08-17T03:35:50.502Z,16.30
2022-08-17T03:38:18.876Z,16.20
2022-08-17T03:40:57.161Z,16.30
2022-08-17T03:43:31.050Z,16.40
2022-08-17T03:46:28.508Z,16.40
2022-08-17T03:49:23.780Z,16.40
2022-08-17T03:52:09.541Z,16.40
2022-08-17T03:54:55.104Z,16.40
2022-08-17T03:57:23.468Z,16.40
2022-08-17T03:59:53.446Z,16.40
2022-08-17T04:02:24.906Z,16.40
2022-08-17T04:04:55.291Z,16.50
2022-08-17T04:07:25.787Z,16.50
2022-08-17T04:09:54.158Z,16.50
2022-08-17T04:12:25.165Z,16.40
2022-08-17T04:14:55.375Z,16.40
2022-08-17T04:17:25.460Z,16.50
2022-08-17T04:19:57.040Z,16.50
2022-08-17T04:22:30.823Z,16.50
2022-08-17T04:25:06.686Z,16.60
2022-08-17T04:27:34.800Z,16.60
2022-08-17T04:30:07.224Z,16.70
2022-08-17T04:33:02.264Z,17.20
2022-08-17T04:35:36.899Z,17.80
2022-08-17T04:38:05.602Z,18.20
2022-08-17T04:40:51.739Z,18.30
2022-08-17T04:43:22.355Z,18.30
2022-08-17T04:45:55.776Z,18.30
2022-08-17T04:48:34.799Z,18.30
2022-08-17T04:51:07.145Z,18.30
2022-08-17T04:53:35.242Z,18.40
2022-08-17T04:56:06.535Z,18.40
2022-08-17T04:58:34.719Z,18.50
2022-08-17T05:01:05.837Z,18.60
2022-08-17T05:03:36.702Z,18.70
2022-08-17T05:06:05.024Z,18.70
2022-08-17T05:08:33.064Z,18.70
2022-08-17T05:11:01.266Z,18.70
2022-08-17T05:13:30.332Z,18.80
2022-08-17T05:16:01.175Z,18.80
2022-08-17T05:18:34.762Z,18.80
2022-08-17T05:21:03.751Z,18.80
2022-08-17T05:23:41.808Z,18.80
2022-08-17T05:26:22.572Z,18.80
2022-08-17T05:28:57.234Z,18.90
2022-08-17T05:31:28.119Z,18.90
2022-08-17T05:33:57.808Z,18.80
2022-08-17T05:36:41.743Z,18.80
2022-08-17T05:39:15.850Z,18.60
2022-08-17T05:41:47.343Z,18.60
2022-08-17T05:44:15.533Z,18.60
2022-08-17T05:46:48.545Z,18.60
2022-08-17T05:49:23.632Z,18.70
2022-08-17T05:52:22.410Z,18.70
2022-08-17T05:55:04.273Z,18.80
2022-08-17T05:57:43.641Z,18.90
2022-08-17T06:00:30.397Z,19.10
2022-08-17T06:03:14.778Z,19.20
2022-08-17T06:05:55.977Z,19.40
2022-08-17T06:08:32.907Z,19.70
2022-08-17T06:11:10.112Z,20.10
2022-08-17T06:13:54.554Z,20.20
2022-08-17T06:16:34.355Z,20.20
2022-08-17T06:19:11.104Z,20.30
2022-08-17T06:21:43.946Z,20.50
2022-08-17T06:24:31.495Z,20.60
2022-08-17T06:27:08.884Z,20.60
2022-08-17T06:29:43.852Z,20.60
2022-08-17T06:32:14.768Z,20.80
2022-08-17T06:34:44.665Z,21.00
2022-08-17T06:37:32.614Z,21.20
2022-08-17T06:40:20.242Z,21.50
2022-08-17T06:43:06.094Z,21.70
2022-08-17T06:45:38.756Z,21.70
2022-08-17T06:48:15.416Z,21.60
2022-08-17T06:50:48.656Z,21.50
2022-08-17T06:53:24.477Z,21.50
2022-08-17T06:55:58.480Z,21.60
2022-08-17T06:58:31.552Z,21.70
2022-08-17T07:01:06.909Z,21.80
2022-08-17T07:03:40.739Z,21.80
2022-08-17T07:06:14.700Z,21.90
2022-08-17T07:08:52.051Z,22.00
2022-08-17T07:11:27.164Z,22.10
2022-08-17T07:14:04.409Z,22.20
2022-08-17T07:16:37.418Z,22.40
2022-08-17T07:19:07.337Z,22.40
2022-08-17T07:21:50.723Z,22.60
2022-08-17T07:24:33.096Z,22.70
2022-08-17T07:27:20.457Z,22.90
2022-08-17T07:29:54.661Z,23.00
2022-08-17T07:32:26.995Z,23.10
2022-08-17T07:35:15.448Z,23.30
2022-08-17T07:37:53.989Z,23.40
2022-08-17T07:40:28.052Z,23.50
2022-08-17T07:43:09.258Z,23.70
2022-08-17T07:46:16.851Z,23.80
2022-08-17T07:48:48.522Z,24.00
2022-08-17T07:51:20.236Z,24.10
2022-08-17T07:53:48.887Z,24.20
2022-08-17T07:56:40.986Z,24.40
2022-08-17T07:59:15.933Z,24.50
2022-08-17T08:01:48.703Z,24.60
2022-08-17T08:07:27.454Z,24.90
2022-08-17T08:10:06.811Z,25.10
2022-08-17T08:12:38.002Z,25.20
2022-08-17T08:15:17.727Z,25.40
2022-08-17T08:17:55.882Z,25.60
2022-08-17T08:20:51.059Z,25.80
2022-08-17T08:23:34.642Z,25.90
2022-08-17T08:26:18.805Z,26.00
2022-08-17T08:28:55.563Z,26.20
2022-08-17T08:31:31.463Z,26.40
2022-08-17T08:34:09.099Z,26.50
2022-08-17T08:37:16.478Z,26.70
2022-08-17T08:40:00.709Z,26.80
2022-08-17T08:42:36.305Z,26.80
2022-08-17T08:45:16.475Z,26.90
2022-08-17T08:48:05.111Z,27.00
2022-08-17T08:50:47.601Z,27.10
2022-08-17T08:53:28.983Z,27.20
2022-08-17T08:56:03.977Z,27.40
2022-08-17T08:58:44.278Z,27.40
2022-08-17T09:01:21.632Z,27.50
2022-08-17T09:04:18.322Z,27.70
2022-08-17T09:06:58.224Z,27.90
2022-08-17T09:09:34.395Z,28.00
2022-08-17T09:12:06.311Z,28.20
2022-08-17T09:14:46.662Z,28.30
2022-08-17T09:17:21.603Z,28.40
2022-08-17T09:19:55.330Z,28.60
2022-08-17T09:22:34.425Z,28.80
2022-08-17T09:25:10.068Z,29.00
2022-08-17T09:27:51.575Z,29.00
2022-08-17T09:30:20.653Z,29.10
2022-08-17T09:32:57.525Z,29.30
2022-08-17T09:35:36.588Z,29.40
2022-08-17T09:38:19.362Z,29.40
2022-08-17T09:40:53.867Z,29.50
2022-08-17T09:43:31.740Z,29.70
2022-08-17T09:46:06.696Z,29.70
2022-08-17T09:48:42.601Z,29.90
2022-08-17T09:51:19.248Z,30.10
2022-08-17T09:53:47.626Z,30.10
2022-08-17T09:56:45.363Z,30.10
2022-08-17T09:59:39.154Z,30.30
2022-08-17T10:02:38.134Z,30.30
2022-08-17T10:05:13.522Z,30.40
2022-08-17T10:07:50.187Z,30.30
2022-08-17T10:10:26.765Z,30.30
2022-08-17T10:13:01.079Z,30.30
2022-08-17T10:15:46.765Z,30.40
2022-08-17T10:18:33.232Z,30.50
2022-08-17T10:21:24.646Z,30.40
2022-08-17T10:24:15.760Z,30.50
2022-08-17T10:26:56.286Z,30.50
2022-08-17T10:29:46.229Z,30.80
2022-08-17T10:32:27.482Z,31.10
2022-08-17T10:35:18.862Z,31.30
2022-08-17T10:37:59.569Z,31.50
2022-08-17T10:40:36.711Z,31.60
2022-08-17T10:43:20.430Z,31.70
2022-08-17T10:46:27.861Z,31.80
2022-08-17T10:49:22.996Z,32.00
2022-08-17T10:51:54.400Z,32.50
2022-08-17T10:54:39.057Z,33.10
2022-08-17T10:57:36.135Z,33.50
2022-08-17T11:00:09.917Z,33.70
2022-08-17T11:02:47.881Z,33.90
2022-08-17T11:05:44.421Z,34.10
2022-08-17T11:08:45.175Z,34.40
2022-08-17T11:11:34.487Z,34.70
2022-08-17T11:14:17.158Z,34.60
2022-08-17T11:17:00.105Z,34.40
2022-08-17T11:19:47.186Z,34.40
2022-08-17T11:22:33.979Z,34.20
2022-08-17T11:25:14.724Z,34.00
2022-08-17T11:27:45.049Z,33.90
2022-08-17T11:30:22.547Z,33.80
2022-08-17T11:32:58.372Z,34.00
2022-08-17T11:35:37.032Z,33.90
2022-08-17T11:38:19.575Z,33.70
2022-08-17T11:41:09.639Z,33.40
2022-08-17T11:44:15.330Z,33.70
2022-08-17T11:47:19.200Z,33.80
2022-08-17T11:50:27.593Z,33.70
2022-08-17T11:52:56.573Z,33.60
2022-08-17T11:56:01.815Z,33.50
2022-08-17T11:58:40.000Z,33.30
2022-08-17T12:01:13.625Z,33.00
2022-08-17T12:03:54.440Z,32.40
2022-08-17T12:06:41.238Z,32.40
2022-08-17T12:09:16.966Z,32.00
2022-08-17T12:11:55.433Z,31.80
2022-08-17T12:15:08.392Z,31.60
2022-08-17T12:17:41.328Z,31.50
2022-08-17T12:20:16.255Z,31.70
2022-08-17T12:22:54.874Z,31.70
2022-08-17T12:25:31.411Z,31.70
2022-08-17T12:28:06.825Z,32.00
2022-08-17T12:30:37.224Z,32.10
2022-08-17T12:33:25.039Z,32.30
2022-08-17T12:35:59.951Z,32.40
2022-08-17T12:38:33.080Z,32.60
2022-08-17T12:41:23.414Z,32.70
2022-08-17T12:44:01.954Z,32.70
2022-08-17T12:46:35.996Z,32.80
2022-08-17T12:49:24.045Z,33.00
2022-08-17T12:51:58.408Z,33.40
2022-08-17T12:54:35.897Z,33.80
2022-08-17T12:57:12.011Z,33.30
2022-08-17T12:59:44.041Z,32.80
2022-08-17T13:02:29.760Z,32.50
2022-08-17T13:05:02.074Z,32.00
2022-08-17T13:07:35.143Z,32.10
2022-08-17T13:10:03.666Z,32.40
2022-08-17T13:12:36.338Z,32.70
2022-08-17T13:15:05.329Z,32.70
2022-08-17T13:17:36.137Z,32.90
2022-08-17T13:20:14.747Z,33.10
2022-08-17T13:22:44.393Z,33.20
2022-08-17T13:25:17.552Z,33.40
2022-08-17T13:27:47.911Z,33.30
2022-08-17T13:30:24.807Z,33.10
2022-08-17T13:32:54.185Z,32.80
2022-08-17T13:35:40.360Z,32.70
2022-08-17T13:38:12.061Z,32.40
2022-08-17T13:40:50.360Z,32.30
2022-08-17T13:43:44.564Z,32.20
2022-08-17T13:46:19.610Z,32.10
2022-08-17T13:48:57.759Z,31.80
2022-08-17T13:51:30.734Z,31.60
2022-08-17T13:54:19.974Z,31.30
2022-08-17T13:56:56.328Z,31.10
2022-08-17T13:59:53.326Z,31.10
2022-08-17T14:02:22.491Z,31.00
2022-08-17T14:04:55.787Z,31.20
2022-08-17T14:07:30.865Z,31.30
2022-08-17T14:10:01.786Z,31.40
2022-08-17T14:12:32.786Z,31.60
2022-08-17T14:15:01.468Z,32.20
2022-08-17T14:17:36.349Z,32.30
2022-08-17T14:20:09.459Z,32.40
2022-08-17T14:22:42.164Z,32.10
2022-08-17T14:25:12.231Z,32.30
2022-08-17T14:27:51.922Z,32.70
2022-08-17T14:30:23.626Z,32.90
2022-08-17T14:32:53.170Z,33.10
2022-08-17T14:35:23.840Z,32.90
2022-08-17T14:37:54.272Z,32.90
2022-08-17T14:40:24.400Z,33.10
2022-08-17T14:42:54.406Z,33.20
2022-08-17T14:45:30.003Z,32.80
2022-08-17T14:48:04.489Z,32.60
2022-08-17T14:50:35.421Z,32.50
2022-08-17T14:53:06.473Z,32.60
2022-08-17T14:55:36.806Z,32.60
2022-08-17T14:58:04.992Z,32.00
2022-08-17T15:00:33.142Z,31.80
2022-08-17T15:03:02.220Z,31.70
2022-08-17T15:05:34.789Z,31.60
2022-08-17T15:08:06.502Z,31.70
2022-08-17T15:10:35.300Z,31.60
2022-08-17T15:13:03.391Z,31.50
2022-08-17T15:15:31.540Z,30.90
2022-08-17T15:18:01.014Z,30.60
2022-08-17T15:20:30.906Z,30.40
2022-08-17T15:22:59.656Z,30.40
2022-08-17T15:25:31.691Z,30.20
2022-08-17T15:28:01.091Z,30.20
2022-08-17T15:30:30.206Z,30.20
2022-08-17T15:32:59.290Z,30.40
2022-08-17T15:35:32.407Z,29.80
2022-08-17T15:38:09.792Z,29.60
2022-08-17T15:40:43.922Z,29.20
2022-08-17T15:43:15.958Z,28.90
2022-08-17T15:45:45.065Z,28.90
2022-08-17T15:48:40.743Z,28.90
2022-08-17T15:51:11.594Z,29.00
2022-08-17T15:53:40.704Z,29.00
2022-08-17T15:56:10.798Z,28.90
2022-08-17T15:58:43.587Z,28.80
2022-08-17T16:01:14.901Z,28.90
2022-08-17T16:04:05.037Z,28.90
2022-08-17T16:06:34.973Z,29.00
2022-08-17T16:09:03.520Z,28.90
2022-08-17T16:11:32.997Z,28.90
2022-08-17T16:14:01.210Z,28.90
2022-08-17T16:16:31.236Z,29.00
2022-08-17T16:18:59.452Z,28.80
2022-08-17T16:21:31.244Z,28.70
2022-08-17T16:24:13.440Z,28.60
2022-08-17T16:26:43.723Z,28.70
2022-08-17T16:29:11.912Z,28.80
2022-08-17T16:31:42.008Z,28.80
2022-08-17T16:34:17.799Z,28.70
2022-08-17T16:36:51.867Z,28.60
2022-08-17T16:39:23.878Z,28.60
2022-08-17T16:41:53.380Z,28.60
2022-08-17T16:44:22.748Z,28.50
2022-08-17T16:46:51.566Z,28.50
2022-08-17T16:49:35.088Z,28.50
2022-08-17T16:52:10.614Z,28.50
2022-08-17T16:54:44.083Z,28.50
2022-08-17T16:57:15.965Z,28.50
2022-08-17T16:59:48.036Z,28.50
2022-08-17T17:02:17.151Z,28.50
2022-08-17T17:04:52.727Z,28.40
2022-08-17T17:07:46.518Z,28.30
2022-08-17T17:10:17.792Z,28.20
2022-08-17T17:13:02.427Z,28.10
2022-08-17T17:15:47.024Z,28.10
2022-08-17T17:18:16.665Z,28.00
2022-08-17T17:20:53.476Z,27.90
2022-08-17T17:23:35.659Z,27.90
2022-08-17T17:26:34.309Z,27.80
2022-08-17T17:29:29.077Z,27.70
2022-08-17T17:32:21.795Z,27.60
2022-08-17T17:34:54.592Z,27.60
2022-08-17T17:37:28.381Z,27.50
2022-08-17T17:40:03.700Z,27.40
2022-08-17T17:42:33.570Z,27.30
2022-08-17T17:45:08.480Z,27.30
2022-08-17T17:47:37.146Z,27.20
2022-08-17T17:50:10.249Z,27.10
2022-08-17T17:52:48.065Z,27.00
2022-08-17T17:55:31.186Z,27.00
2022-08-17T17:58:10.179Z,26.90
2022-08-17T18:00:50.153Z,26.90
2022-08-17T18:03:28.777Z,26.80
2022-08-17T18:06:12.523Z,26.80
2022-08-17T18:08:59.990Z,26.70
2022-08-17T18:11:53.862Z,26.60
2022-08-17T18:14:43.766Z,26.60
2022-08-17T18:17:14.285Z,26.50
2022-08-17T18:19:42.469Z,26.40
2022-08-17T18:22:14.552Z,26.40
2022-08-17T18:24:46.108Z,26.30
2022-08-17T18:27:24.182Z,26.30
2022-08-17T18:29:54.659Z,26.20
2022-08-17T18:32:32.612Z,26.00
2022-08-17T18:35:27.668Z,25.90
2022-08-17T18:37:58.643Z,25.90
2022-08-17T18:40:34.271Z,26.00
2022-08-17T18:43:13.186Z,25.90
2022-08-17T18:45:46.922Z,25.80
2022-08-17T18:48:24.321Z,25.60
2022-08-17T18:50:53.929Z,25.50
2022-08-17T18:53:34.715Z,25.40
2022-08-17T18:56:30.967Z,25.20
2022-08-17T18:59:18.659Z,25.20
2022-08-17T19:02:00.813Z,25.00
2022-08-17T19:04:36.824Z,25.10
2022-08-17T19:07:10.346Z,25.00
2022-08-17T19:09:45.316Z,25.00
2022-08-17T19:12:27.438Z,24.80
2022-08-17T19:14:57.862Z,24.70
2022-08-17T19:17:33.254Z,24.60
2022-08-17T19:20:07.044Z,24.50
2022-08-17T19:22:48.047Z,24.50
2022-08-17T19:25:23.908Z,24.50
2022-08-17T19:28:01.098Z,24.60
2022-08-17T19:30:31.807Z,24.80
2022-08-17T19:33:01.992Z,24.80
2022-08-17T19:35:43.400Z,24.70
2022-08-17T19:38:26.648Z,24.60
2022-08-17T19:41:04.105Z,24.50
2022-08-17T19:43:50.459Z,24.40
2022-08-17T19:46:28.629Z,24.30
2022-08-17T19:49:05.272Z,24.20
2022-08-17T19:51:44.972Z,24.10
2022-08-17T19:54:20.451Z,24.10
2022-08-17T19:56:56.545Z,24.10
2022-08-17T19:59:36.059Z,24.10
2022-08-17T20:02:16.265Z,24.10
2022-08-17T20:04:47.668Z,24.00
2022-08-17T20:07:23.549Z,24.00
2022-08-17T20:09:57.618Z,24.00
2022-08-17T20:12:32.243Z,24.00
2022-08-17T20:15:05.617Z,23.90
2022-08-17T20:17:38.102Z,23.80
2022-08-17T20:20:19.937Z,23.70
2022-08-17T20:22:58.574Z,23.60
2022-08-17T20:25:38.907Z,23.60
2022-08-17T20:28:19.045Z,23.50
2022-08-17T20:30:50.743Z,23.50
2022-08-17T20:33:28.059Z,23.40
2022-08-17T20:36:12.802Z,23.50
2022-08-17T20:38:47.097Z,23.40
2022-08-17T20:41:17.317Z,23.30
2022-08-17T20:44:03.872Z,23.20
2022-08-17T20:46:52.558Z,23.10
2022-08-17T20:49:27.656Z,22.90
2022-08-17T20:52:02.511Z,22.80
2022-08-17T20:54:48.805Z,22.70
2022-08-17T20:57:47.422Z,22.70
2022-08-17T21:00:46.550Z,22.90
2022-08-17T21:03:50.915Z,23.00
2022-08-17T21:06:22.683Z,23.00
2022-08-17T21:08:58.607Z,23.10
2022-08-17T21:12:04.865Z,23.10
2022-08-17T21:14:57.370Z,23.10
2022-08-17T21:17:44.563Z,23.10
2022-08-17T21:20:26.387Z,23.00
2022-08-17T21:23:21.189Z,23.10
2022-08-17T21:26:09.048Z,23.20
2022-08-17T21:29:01.039Z,23.30
2022-08-17T21:31:34.355Z,23.20
2022-08-17T21:34:28.061Z,23.20
2022-08-17T21:36:57.672Z,23.20
2022-08-17T21:39:34.118Z,23.20
2022-08-17T21:42:04.568Z,23.10
2022-08-17T21:44:37.642Z,23.10
2022-08-17T21:47:20.470Z,23.10
2022-08-17T21:49:49.659Z,23.10
2022-08-17T21:52:22.884Z,23.00
2022-08-17T21:54:54.415Z,22.90
2022-08-17T21:57:27.582Z,22.90
2022-08-17T21:59:59.226Z,22.80
2022-08-17T22:02:32.355Z,22.80
2022-08-17T22:05:03.089Z,22.80
2022-08-17T22:07:42.101Z,22.80
2022-08-17T22:10:30.487Z,22.80
2022-08-17T22:13:16.617Z,22.80
2022-08-17T22:15:49.369Z,22.70
2022-08-17T22:18:22.087Z,22.70
2022-08-17T22:20:52.377Z,22.70
2022-08-17T22:23:44.060Z,22.70
2022-08-17T22:26:15.570Z,22.70
2022-08-17T22:28:46.912Z,22.70
2022-08-17T22:31:19.229Z,22.70
2022-08-17T22:33:49.457Z,22.70
2022-08-17T22:36:29.526Z,22.70
2022-08-17T22:39:02.059Z,22.70
2022-08-17T22:41:46.373Z,22.60
2022-08-17T22:44:20.344Z,22.60
2022-08-17T22:47:11.460Z,22.60
2022-08-17T22:49:54.007Z,22.60
2022-08-17T22:52:34.022Z,22.50
2022-08-17T22:55:30.157Z,22.50
2022-08-17T22:58:16.558Z,22.60
2022-08-17T23:00:46.574Z,22.50
2022-08-17T23:03:21.760Z,22.50
2022-08-17T23:06:13.062Z,22.50
2022-08-17T23:08:57.908Z,22.50
2022-08-17T23:11:48.615Z,22.50
2022-08-17T23:14:22.716Z,22.40
2022-08-17T23:16:51.118Z,22.50
2022-08-17T23:19:22.843Z,22.50
2022-08-17T23:21:55.310Z,22.50
2022-08-17T23:24:25.924Z,22.40
2022-08-17T23:26:54.243Z,22.40
2022-08-17T23:29:22.510Z,22.40
2022-08-17T23:31:53.123Z,22.40
2022-08-17T23:34:24.199Z,22.40
2022-08-17T23:36:53.126Z,22.40
2022-08-17T23:39:27.477Z,22.40
2022-08-17T23:41:57.108Z,22.40
2022-08-17T23:44:25.767Z,22.40
2022-08-17T23:46:54.753Z,22.40
2022-08-17T23:49:25.092Z,22.30
2022-08-17T23:51:54.699Z,22.40
2022-08-17T23:54:26.000Z,22.30
2022-08-17T23:56:54.139Z,22.30
2022-08-17T23:59:24.694Z,22.30
